Flight Track Log - Related Links

Times and Time Zones

All times are in EST time to prevent confusion due to time zone crossing. See the MSR391 flight status page for this flight to view local times or setup timezone preferences in your user account.

Time Position Orientation Groundspeed Altitude Reporting Facility
EST Latitude Longitude Course Direction KTS MPH feet Rate Location/Type
Wed 12:19:00 AM 29.5065 31.5544 168° South  Level Estimated
Wed 12:20:00 AM 29.3833 31.5840 168° South  Level Estimated
Wed 12:21:00 AM 29.2602 31.6135 168° South  Level Estimated
Wed 12:22:00 AM 29.1371 31.6429 168° South  Level Estimated
Wed 12:23:00 AM 29.0139 31.6723 168° South  Level Estimated
Wed 12:24:00 AM 28.8908 31.7015 168° South  Level Estimated
Wed 12:25:00 AM 28.7676 31.7308 168° South  Level Estimated
Wed 12:26:00 AM 28.6445 31.7599 168° South  Level Estimated
Wed 12:27:00 AM 28.5213 31.7890 168° South  Level Estimated
Wed 12:28:00 AM 28.3981 31.8180 168° South  Level Estimated
Wed 12:29:00 AM 28.2750 31.8469 168° South  Level Estimated
Wed 12:30:00 AM 28.1518 31.8758 168° South  Level Estimated
Wed 12:31:00 AM 28.0286 31.9046 168° South  Level Estimated
Wed 12:32:00 AM 27.9054 31.9333 168° South  Level Estimated
Wed 12:33:00 AM 27.7822 31.9620 168° South  Level Estimated
Wed 12:34:00 AM 27.6590 31.9906 168° South  Level Estimated
Wed 12:35:00 AM 27.5358 32.0191 168° South  Level Estimated
Wed 12:36:00 AM 27.4126 32.0476 168° South  Level Estimated
Wed 12:37:00 AM 27.2893 32.0760 168° South  Level Estimated
Wed 12:38:00 AM 27.1661 32.1044 168° South  Level Estimated
Wed 12:39:00 AM 27.0429 32.1327 168° South  Level Estimated
Wed 12:40:00 AM 26.9196 32.1609 168° South  Level Estimated
Wed 12:41:00 AM 26.7964 32.1891 168° South  Level Estimated
Wed 12:42:00 AM 26.6731 32.2172 168° South  Level Estimated
Wed 12:43:00 AM 26.5499 32.2452 168° South  Level Estimated
Wed 12:44:00 AM 26.4266 32.2732 169° South  Level Estimated
Wed 12:45:00 AM 26.3221 32.2968 169° South  Level Estimated
Wed 12:46:00 AM 26.2177 32.3205 169° South  Level Estimated
Wed 12:47:00 AM 26.1132 32.3441 169° South  Level Estimated
Wed 12:48:00 AM 26.0087 32.3676 169° South  Level Estimated
Wed 12:49:00 AM 25.9042 32.3911 169° South  Level Estimated
Wed 12:50:00 AM 25.7998 32.4146 169° South  Level Estimated
Wed 12:51:00 AM 25.6953 32.4380 169° South  Level Estimated
Wed 12:52:00 AM 25.5908 32.4613 169° South  Level Estimated
Wed 12:53:00 AM 25.4863 32.4847 169° South  Level Estimated
Wed 12:54:00 AM 25.3818 32.5080 169° South  Level Estimated
Wed 12:55:00 AM 25.2773 32.5312 169° South  Level Estimated
Wed 12:56:00 AM 25.1728 32.5544 169° South  Level Estimated
Wed 12:57:00 AM 25.0683 32.5776 169° South  Level Estimated
Wed 12:58:00 AM 24.9638 32.6007 169° South  Level Estimated
Wed 12:59:00 AM 24.8592 32.6238 169° South  Level Estimated
Wed 01:00:00 AM 24.7547 32.6469 169° South  Level Estimated
Wed 01:01:00 AM 24.6502 32.6699 169° South  Level Estimated
Wed 01:02:00 AM 24.5457 32.6929 169° South  Level Estimated
Wed 01:03:00 AM 24.4412 32.7158 169° South  Level Estimated
Wed 01:04:00 AM 24.3366 32.7387 169° South  Level Estimated
Wed 01:05:00 AM 24.2321 32.7616 169° South  Level Estimated
Wed 01:06:00 AM 24.1275 32.7844 169° South  Level Estimated
Wed 01:07:00 AM 24.0230 32.8072 169° South  Level Estimated
Wed 01:08:00 AM 23.9644 32.8200 169° South  Level Estimated
Wed 01:09:00 AM 23.9644 32.8200 229° Southwest  Level Estimated
Wed 01:10:00 AM 23.9644 32.8200 229° Southwest  Level Estimated
Wed 01:11:00 AM 23.9644 32.8200 229° Southwest  Level Estimated
Wed 01:12:00 AM 23.9644 32.8200 229° Southwest  Level Estimated
Wed 01:13:00 AM 23.9644 32.8200 229° Southwest  Level Estimated
Wed 01:14:00 AM 23.9644 32.8200 229° Southwest  Level Estimated
Wed 01:15:00 AM 23.9644 32.8200 229° Southwest  Level Estimated
Wed 01:16:00 AM 23.9644 32.8200 229° Southwest  Level Estimated
Wed 01:17:00 AM 23.9644 32.8200 229° Southwest  Level Estimated
Wed 01:18:00 AM 23.9644 32.8200 229° Southwest  Level Estimated
Wed 01:19:00 AM 23.9644 32.8200 229° Southwest  Level Estimated
Wed 01:20:00 AM 23.9644 32.8200 229° Southwest  Level Estimated
Wed 01:21:00 AM 23.9644 32.8200 229° Southwest  Level Estimated
Wed 01:22:00 AM 23.9644 32.8200 229° Southwest  Level Estimated
Wed 01:23:00 AM 23.9644 32.8200 229° Southwest  Level Estimated
Wed 01:24:00 AM 23.9644 32.8200 229° Southwest  Level Estimated

Login

Don't have an account? Register now (free) for customized features, flight alerts, and more!